Record Assoluto di Massima a Baghdad

Ieri, 11 luglio 2010, l’aeroporto nazionale di Baghdad ha registrato una massima di 51°C.
Nuovo Record Assoluto di Massima per la città. Spodestati i 50.4°C
Questo il Metar delle 12:37 del 12/07/2010: 
SPECI KQTZ 121237Z 36016G28KT 5000 BLDU FEW010 51/01 A2950 
RMK PK WND 01031/25 DU FEW010 DU LYR ALFT QNH998MB 
ALSTG/SLP ESTMD WND= 
L’aeroporto internazionale si è fermato a una max di 50,0°C 
Altra curiosità, la temperatura media della città è da oltre un mese sopra i 40°C 
Insomma per caldofili, l’Iraq, è una meta da non lasciarsi sfuggire dalle vacanze

About jovi72